sensor_id;sensor_type;location;lat;lon;timestamp;temperature;humidity
13892;DHT22;7016;48.172;8.058;2023-04-16T00:00:50;10.20;99.90
13892;DHT22;7016;48.172;8.058;2023-04-16T00:03:15;10.10;99.90
13892;DHT22;7016;48.172;8.058;2023-04-16T00:05:41;10.10;99.90
13892;DHT22;7016;48.172;8.058;2023-04-16T00:08:07;10.10;99.90
13892;DHT22;7016;48.172;8.058;2023-04-16T00:10:36;10.10;99.90
13892;DHT22;7016;48.172;8.058;2023-04-16T00:13:01;10.10;99.90
13892;DHT22;7016;48.172;8.058;2023-04-16T00:15:27;10.10;99.90
13892;DHT22;7016;48.172;8.058;2023-04-16T00:17:53;10.10;99.90
13892;DHT22;7016;48.172;8.058;2023-04-16T00:20:19;10.00;99.90
13892;DHT22;7016;48.172;8.058;2023-04-16T00:22:45;10.00;99.90
13892;DHT22;7016;48.172;8.058;2023-04-16T00:25:10;10.00;99.90
13892;DHT22;7016;48.172;8.058;2023-04-16T00:27:36;10.00;99.90
13892;DHT22;7016;48.172;8.058;2023-04-16T00:30:02;10.00;99.90
13892;DHT22;7016;48.172;8.058;2023-04-16T00:32:29;9.90;99.90
13892;DHT22;7016;48.172;8.058;2023-04-16T00:34:55;10.00;99.90
13892;DHT22;7016;48.172;8.058;2023-04-16T00:37:20;9.90;99.90
13892;DHT22;7016;48.172;8.058;2023-04-16T00:39:46;10.00;99.90
13892;DHT22;7016;48.172;8.058;2023-04-16T00:42:12;10.00;99.90
13892;DHT22;7016;48.172;8.058;2023-04-16T00:44:37;10.00;99.90
13892;DHT22;7016;48.172;8.058;2023-04-16T00:47:03;9.90;99.90
13892;DHT22;7016;48.172;8.058;2023-04-16T00:49:31;9.90;99.90
13892;DHT22;7016;48.172;8.058;2023-04-16T00:51:57;10.00;99.90
13892;DHT22;7016;48.172;8.058;2023-04-16T00:54:24;9.90;99.90
13892;DHT22;7016;48.172;8.058;2023-04-16T00:56:50;9.90;99.90
13892;DHT22;7016;48.172;8.058;2023-04-16T00:59:16;9.90;99.90
13892;DHT22;7016;48.172;8.058;2023-04-16T01:01:42;9.90;99.90
13892;DHT22;7016;48.172;8.058;2023-04-16T01:04:08;9.90;99.90
13892;DHT22;7016;48.172;8.058;2023-04-16T01:06:34;9.90;99.90
13892;DHT22;7016;48.172;8.058;2023-04-16T01:08:59;9.90;99.90
13892;DHT22;7016;48.172;8.058;2023-04-16T01:11:25;9.90;99.90
13892;DHT22;7016;48.172;8.058;2023-04-16T01:13:51;9.90;99.90
13892;DHT22;7016;48.172;8.058;2023-04-16T01:16:16;9.90;99.90
13892;DHT22;7016;48.172;8.058;2023-04-16T01:18:42;9.90;99.90
13892;DHT22;7016;48.172;8.058;2023-04-16T01:21:08;9.90;99.90
13892;DHT22;7016;48.172;8.058;2023-04-16T01:23:34;9.90;99.90
13892;DHT22;7016;48.172;8.058;2023-04-16T01:25:59;9.90;99.90
13892;DHT22;7016;48.172;8.058;2023-04-16T01:28:25;9.90;99.90
13892;DHT22;7016;48.172;8.058;2023-04-16T01:30:51;9.90;99.90
13892;DHT22;7016;48.172;8.058;2023-04-16T01:33:17;9.90;99.90
13892;DHT22;7016;48.172;8.058;2023-04-16T01:35:43;9.90;99.90
13892;DHT22;7016;48.172;8.058;2023-04-16T01:38:09;9.90;99.90
13892;DHT22;7016;48.172;8.058;2023-04-16T01:40:36;9.90;99.90
13892;DHT22;7016;48.172;8.058;2023-04-16T01:43:02;9.90;99.90
13892;DHT22;7016;48.172;8.058;2023-04-16T01:45:28;9.80;99.90
13892;DHT22;7016;48.172;8.058;2023-04-16T01:47:55;9.80;99.90
13892;DHT22;7016;48.172;8.058;2023-04-16T01:50:21;9.70;99.90
13892;DHT22;7016;48.172;8.058;2023-04-16T01:52:47;9.80;99.90
13892;DHT22;7016;48.172;8.058;2023-04-16T01:55:13;9.90;99.90
13892;DHT22;7016;48.172;8.058;2023-04-16T01:57:39;9.70;99.90
13892;DHT22;7016;48.172;8.058;2023-04-16T02:00:05;9.80;99.90
13892;DHT22;7016;48.172;8.058;2023-04-16T02:02:33;9.80;99.90
13892;DHT22;7016;48.172;8.058;2023-04-16T02:04:59;9.70;99.90
13892;DHT22;7016;48.172;8.058;2023-04-16T02:07:25;9.70;99.90
13892;DHT22;7016;48.172;8.058;2023-04-16T02:09:52;9.70;99.90
13892;DHT22;7016;48.172;8.058;2023-04-16T02:12:18;9.70;99.90
13892;DHT22;7016;48.172;8.058;2023-04-16T02:14:44;9.70;99.90
13892;DHT22;7016;48.172;8.058;2023-04-16T02:17:09;9.60;99.90
13892;DHT22;7016;48.172;8.058;2023-04-16T02:19:35;9.70;99.90
13892;DHT22;7016;48.172;8.058;2023-04-16T02:22:01;9.70;99.90
13892;DHT22;7016;48.172;8.058;2023-04-16T02:24:27;9.70;99.90
13892;DHT22;7016;48.172;8.058;2023-04-16T02:26:53;9.80;99.90
13892;DHT22;7016;48.172;8.058;2023-04-16T02:29:19;9.80;99.90
13892;DHT22;7016;48.172;8.058;2023-04-16T02:31:45;9.80;99.90
13892;DHT22;7016;48.172;8.058;2023-04-16T02:34:11;9.80;99.90
13892;DHT22;7016;48.172;8.058;2023-04-16T02:36:38;9.70;99.90
13892;DHT22;7016;48.172;8.058;2023-04-16T02:39:04;9.70;99.90
13892;DHT22;7016;48.172;8.058;2023-04-16T02:41:29;9.70;99.90
13892;DHT22;7016;48.172;8.058;2023-04-16T02:43:55;9.70;99.90
13892;DHT22;7016;48.172;8.058;2023-04-16T02:46:21;9.70;99.90
13892;DHT22;7016;48.172;8.058;2023-04-16T02:48:47;9.70;99.90
13892;DHT22;7016;48.172;8.058;2023-04-16T02:51:12;9.70;99.90
13892;DHT22;7016;48.172;8.058;2023-04-16T02:53:38;9.70;99.90
13892;DHT22;7016;48.172;8.058;2023-04-16T02:56:04;9.80;99.90
13892;DHT22;7016;48.172;8.058;2023-04-16T02:58:30;9.70;99.90
13892;DHT22;7016;48.172;8.058;2023-04-16T03:00:56;9.70;99.90
13892;DHT22;7016;48.172;8.058;2023-04-16T03:03:22;9.70;99.90
13892;DHT22;7016;48.172;8.058;2023-04-16T03:05:48;9.70;99.90
13892;DHT22;7016;48.172;8.058;2023-04-16T03:08:13;9.70;99.90
13892;DHT22;7016;48.172;8.058;2023-04-16T03:10:39;9.70;99.90
13892;DHT22;7016;48.172;8.058;2023-04-16T03:13:06;9.70;99.90
13892;DHT22;7016;48.172;8.058;2023-04-16T03:15:32;9.60;99.90
13892;DHT22;7016;48.172;8.058;2023-04-16T03:17:58;9.60;99.90
13892;DHT22;7016;48.172;8.058;2023-04-16T03:20:24;9.60;99.90
13892;DHT22;7016;48.172;8.058;2023-04-16T03:22:50;9.60;99.90
13892;DHT22;7016;48.172;8.058;2023-04-16T03:25:17;9.70;99.90
13892;DHT22;7016;48.172;8.058;2023-04-16T03:27:43;9.60;99.90
13892;DHT22;7016;48.172;8.058;2023-04-16T03:30:12;9.60;99.90
13892;DHT22;7016;48.172;8.058;2023-04-16T03:32:39;9.60;99.90
13892;DHT22;7016;48.172;8.058;2023-04-16T03:35:05;9.70;99.90
13892;DHT22;7016;48.172;8.058;2023-04-16T03:37:32;9.70;99.90
13892;DHT22;7016;48.172;8.058;2023-04-16T03:39:58;9.60;99.90
13892;DHT22;7016;48.172;8.058;2023-04-16T03:42:24;9.60;99.90
13892;DHT22;7016;48.172;8.058;2023-04-16T03:44:50;9.60;99.90
13892;DHT22;7016;48.172;8.058;2023-04-16T03:47:18;9.60;99.90
13892;DHT22;7016;48.172;8.058;2023-04-16T03:49:44;9.70;99.90
13892;DHT22;7016;48.172;8.058;2023-04-16T03:52:09;9.70;99.90
13892;DHT22;7016;48.172;8.058;2023-04-16T03:54:35;9.70;99.90
13892;DHT22;7016;48.172;8.058;2023-04-16T03:57:01;9.60;99.90
13892;DHT22;7016;48.172;8.058;2023-04-16T03:59:27;9.60;99.90
13892;DHT22;7016;48.172;8.058;2023-04-16T04:01:53;9.60;99.90
13892;DHT22;7016;48.172;8.058;2023-04-16T04:04:18;9.60;99.90
13892;DHT22;7016;48.172;8.058;2023-04-16T04:06:45;9.60;99.90
13892;DHT22;7016;48.172;8.058;2023-04-16T04:09:11;9.60;99.90
13892;DHT22;7016;48.172;8.058;2023-04-16T04:11:37;9.60;99.90
13892;DHT22;7016;48.172;8.058;2023-04-16T04:14:03;9.60;99.90
13892;DHT22;7016;48.172;8.058;2023-04-16T04:16:30;9.50;99.90
13892;DHT22;7016;48.172;8.058;2023-04-16T04:18:56;9.50;99.90
13892;DHT22;7016;48.172;8.058;2023-04-16T04:21:22;9.50;99.90
13892;DHT22;7016;48.172;8.058;2023-04-16T04:23:48;9.40;99.90
13892;DHT22;7016;48.172;8.058;2023-04-16T04:26:13;9.50;99.90
13892;DHT22;7016;48.172;8.058;2023-04-16T04:28:39;9.50;99.90
13892;DHT22;7016;48.172;8.058;2023-04-16T04:31:05;9.60;99.90
13892;DHT22;7016;48.172;8.058;2023-04-16T04:33:31;9.50;99.90
13892;DHT22;7016;48.172;8.058;2023-04-16T04:35:57;9.50;99.90
13892;DHT22;7016;48.172;8.058;2023-04-16T04:38:23;9.50;99.90
13892;DHT22;7016;48.172;8.058;2023-04-16T04:40:50;9.60;99.90
13892;DHT22;7016;48.172;8.058;2023-04-16T04:43:20;9.60;99.90
13892;DHT22;7016;48.172;8.058;2023-04-16T04:45:46;9.60;99.90
13892;DHT22;7016;48.172;8.058;2023-04-16T04:48:12;9.50;99.90
13892;DHT22;7016;48.172;8.058;2023-04-16T04:50:37;9.50;99.90
13892;DHT22;7016;48.172;8.058;2023-04-16T04:53:04;9.40;99.90
13892;DHT22;7016;48.172;8.058;2023-04-16T04:55:35;9.40;99.90
13892;DHT22;7016;48.172;8.058;2023-04-16T04:58:03;9.60;99.90
13892;DHT22;7016;48.172;8.058;2023-04-16T05:00:29;9.50;99.90
13892;DHT22;7016;48.172;8.058;2023-04-16T05:02:55;9.50;99.90
13892;DHT22;7016;48.172;8.058;2023-04-16T05:05:21;9.50;99.90
13892;DHT22;7016;48.172;8.058;2023-04-16T05:07:47;9.50;99.90
13892;DHT22;7016;48.172;8.058;2023-04-16T05:10:13;9.50;99.90
13892;DHT22;7016;48.172;8.058;2023-04-16T05:12:39;9.50;99.90
13892;DHT22;7016;48.172;8.058;2023-04-16T05:15:05;9.40;99.90
13892;DHT22;7016;48.172;8.058;2023-04-16T05:17:30;9.40;99.90
13892;DHT22;7016;48.172;8.058;2023-04-16T05:19:56;9.50;99.90
13892;DHT22;7016;48.172;8.058;2023-04-16T05:22:22;9.50;99.90
13892;DHT22;7016;48.172;8.058;2023-04-16T05:24:47;9.50;99.90
13892;DHT22;7016;48.172;8.058;2023-04-16T05:27:13;9.50;99.90
13892;DHT22;7016;48.172;8.058;2023-04-16T05:29:39;9.40;99.90
13892;DHT22;7016;48.172;8.058;2023-04-16T05:32:05;9.50;99.90
13892;DHT22;7016;48.172;8.058;2023-04-16T05:34:30;9.50;99.90
13892;DHT22;7016;48.172;8.058;2023-04-16T05:36:56;9.50;99.90
13892;DHT22;7016;48.172;8.058;2023-04-16T05:39:22;9.40;99.90
13892;DHT22;7016;48.172;8.058;2023-04-16T05:41:47;9.40;99.90
13892;DHT22;7016;48.172;8.058;2023-04-16T05:44:13;9.40;99.90
13892;DHT22;7016;48.172;8.058;2023-04-16T05:46:39;9.40;99.90
13892;DHT22;7016;48.172;8.058;2023-04-16T05:49:05;9.40;99.90
13892;DHT22;7016;48.172;8.058;2023-04-16T05:51:31;9.40;99.90
13892;DHT22;7016;48.172;8.058;2023-04-16T05:53:57;9.40;99.90
13892;DHT22;7016;48.172;8.058;2023-04-16T05:56:23;9.50;99.90
13892;DHT22;7016;48.172;8.058;2023-04-16T05:58:49;9.50;99.90
13892;DHT22;7016;48.172;8.058;2023-04-16T06:01:15;9.40;99.90
13892;DHT22;7016;48.172;8.058;2023-04-16T06:03:41;9.40;99.90
13892;DHT22;7016;48.172;8.058;2023-04-16T06:06:06;9.40;99.90
13892;DHT22;7016;48.172;8.058;2023-04-16T06:08:33;9.40;99.90
13892;DHT22;7016;48.172;8.058;2023-04-16T06:10:59;9.40;99.90
13892;DHT22;7016;48.172;8.058;2023-04-16T06:13:25;9.40;99.90
13892;DHT22;7016;48.172;8.058;2023-04-16T06:15:51;9.40;99.90
13892;DHT22;7016;48.172;8.058;2023-04-16T06:18:16;9.40;99.90
13892;DHT22;7016;48.172;8.058;2023-04-16T06:20:42;9.40;99.90
13892;DHT22;7016;48.172;8.058;2023-04-16T06:23:08;9.40;99.90
13892;DHT22;7016;48.172;8.058;2023-04-16T06:25:33;9.30;99.90
13892;DHT22;7016;48.172;8.058;2023-04-16T06:27:59;9.30;99.90
13892;DHT22;7016;48.172;8.058;2023-04-16T06:30:25;9.40;99.90
13892;DHT22;7016;48.172;8.058;2023-04-16T06:32:51;9.30;99.90
13892;DHT22;7016;48.172;8.058;2023-04-16T06:35:17;9.30;99.90
13892;DHT22;7016;48.172;8.058;2023-04-16T06:37:45;9.30;99.90
13892;DHT22;7016;48.172;8.058;2023-04-16T06:40:11;9.30;99.90
13892;DHT22;7016;48.172;8.058;2023-04-16T06:42:36;9.30;99.90
13892;DHT22;7016;48.172;8.058;2023-04-16T06:45:02;9.30;99.90
13892;DHT22;7016;48.172;8.058;2023-04-16T06:47:28;9.30;99.90
13892;DHT22;7016;48.172;8.058;2023-04-16T06:49:54;9.30;99.90
13892;DHT22;7016;48.172;8.058;2023-04-16T06:52:20;9.30;99.90
13892;DHT22;7016;48.172;8.058;2023-04-16T06:54:46;9.30;99.90
13892;DHT22;7016;48.172;8.058;2023-04-16T06:57:12;9.30;99.90
13892;DHT22;7016;48.172;8.058;2023-04-16T06:59:37;9.30;99.90
13892;DHT22;7016;48.172;8.058;2023-04-16T07:02:03;9.30;99.90
13892;DHT22;7016;48.172;8.058;2023-04-16T07:04:29;9.30;99.90
13892;DHT22;7016;48.172;8.058;2023-04-16T07:06:55;9.30;99.90
13892;DHT22;7016;48.172;8.058;2023-04-16T07:09:21;9.30;99.90
13892;DHT22;7016;48.172;8.058;2023-04-16T07:11:46;9.30;99.90
13892;DHT22;7016;48.172;8.058;2023-04-16T07:14:12;9.30;99.90
13892;DHT22;7016;48.172;8.058;2023-04-16T07:16:38;9.30;99.90
13892;DHT22;7016;48.172;8.058;2023-04-16T07:19:04;9.30;99.90
13892;DHT22;7016;48.172;8.058;2023-04-16T07:21:30;9.30;99.90
13892;DHT22;7016;48.172;8.058;2023-04-16T07:23:56;9.30;99.90
13892;DHT22;7016;48.172;8.058;2023-04-16T07:26:22;9.40;99.90
13892;DHT22;7016;48.172;8.058;2023-04-16T07:28:47;9.40;99.90
13892;DHT22;7016;48.172;8.058;2023-04-16T07:31:13;9.40;99.90
13892;DHT22;7016;48.172;8.058;2023-04-16T07:33:39;9.40;99.90
13892;DHT22;7016;48.172;8.058;2023-04-16T07:36:05;9.40;99.90
13892;DHT22;7016;48.172;8.058;2023-04-16T07:38:31;9.40;99.90
13892;DHT22;7016;48.172;8.058;2023-04-16T07:40:56;9.40;99.90
13892;DHT22;7016;48.172;8.058;2023-04-16T07:43:22;9.30;99.90
13892;DHT22;7016;48.172;8.058;2023-04-16T07:45:48;9.30;99.90
13892;DHT22;7016;48.172;8.058;2023-04-16T07:48:13;9.30;99.90
13892;DHT22;7016;48.172;8.058;2023-04-16T07:50:39;9.40;99.90
13892;DHT22;7016;48.172;8.058;2023-04-16T07:53:06;9.40;99.90
13892;DHT22;7016;48.172;8.058;2023-04-16T07:55:32;9.40;99.90
13892;DHT22;7016;48.172;8.058;2023-04-16T07:57:57;9.30;99.90
13892;DHT22;7016;48.172;8.058;2023-04-16T08:00:23;9.40;99.90
13892;DHT22;7016;48.172;8.058;2023-04-16T08:02:49;9.40;99.90
13892;DHT22;7016;48.172;8.058;2023-04-16T08:05:15;9.40;99.90
13892;DHT22;7016;48.172;8.058;2023-04-16T08:07:40;9.40;99.90
13892;DHT22;7016;48.172;8.058;2023-04-16T08:10:06;9.40;99.90
13892;DHT22;7016;48.172;8.058;2023-04-16T08:12:32;9.40;99.90
13892;DHT22;7016;48.172;8.058;2023-04-16T08:14:58;9.50;99.90
13892;DHT22;7016;48.172;8.058;2023-04-16T08:17:24;9.50;99.90
13892;DHT22;7016;48.172;8.058;2023-04-16T08:19:49;9.50;99.90
13892;DHT22;7016;48.172;8.058;2023-04-16T08:22:15;9.40;99.90
13892;DHT22;7016;48.172;8.058;2023-04-16T08:24:41;9.40;99.90
13892;DHT22;7016;48.172;8.058;2023-04-16T08:27:07;9.50;99.90
13892;DHT22;7016;48.172;8.058;2023-04-16T08:29:33;9.40;99.90
13892;DHT22;7016;48.172;8.058;2023-04-16T08:31:59;9.50;99.90
13892;DHT22;7016;48.172;8.058;2023-04-16T08:34:25;9.50;99.90
13892;DHT22;7016;48.172;8.058;2023-04-16T08:36:50;9.50;99.90
13892;DHT22;7016;48.172;8.058;2023-04-16T08:39:16;9.50;99.90
13892;DHT22;7016;48.172;8.058;2023-04-16T08:41:44;9.50;99.90
13892;DHT22;7016;48.172;8.058;2023-04-16T08:44:33;9.50;99.90
13892;DHT22;7016;48.172;8.058;2023-04-16T08:46:59;9.60;99.90
13892;DHT22;7016;48.172;8.058;2023-04-16T08:49:26;9.60;99.90
13892;DHT22;7016;48.172;8.058;2023-04-16T08:51:55;9.60;99.90
13892;DHT22;7016;48.172;8.058;2023-04-16T08:54:33;9.60;99.90
13892;DHT22;7016;48.172;8.058;2023-04-16T08:56:59;9.60;99.90
13892;DHT22;7016;48.172;8.058;2023-04-16T08:59:27;9.70;99.90
13892;DHT22;7016;48.172;8.058;2023-04-16T09:01:57;9.60;99.90
13892;DHT22;7016;48.172;8.058;2023-04-16T09:04:27;9.60;99.90
13892;DHT22;7016;48.172;8.058;2023-04-16T09:06:54;9.70;99.90
13892;DHT22;7016;48.172;8.058;2023-04-16T09:09:22;9.70;99.90
13892;DHT22;7016;48.172;8.058;2023-04-16T09:11:52;9.60;99.90
13892;DHT22;7016;48.172;8.058;2023-04-16T09:14:19;9.70;99.90
13892;DHT22;7016;48.172;8.058;2023-04-16T09:16:45;9.60;99.90
13892;DHT22;7016;48.172;8.058;2023-04-16T09:19:15;9.70;99.90
13892;DHT22;7016;48.172;8.058;2023-04-16T09:21:41;9.70;99.90
13892;DHT22;7016;48.172;8.058;2023-04-16T09:24:09;9.80;99.90
13892;DHT22;7016;48.172;8.058;2023-04-16T09:26:35;9.80;99.90
13892;DHT22;7016;48.172;8.058;2023-04-16T09:29:01;9.80;99.90
13892;DHT22;7016;48.172;8.058;2023-04-16T09:31:27;9.70;99.90
13892;DHT22;7016;48.172;8.058;2023-04-16T09:34:04;9.80;99.90
13892;DHT22;7016;48.172;8.058;2023-04-16T09:36:31;9.80;99.90
13892;DHT22;7016;48.172;8.058;2023-04-16T09:38:58;9.80;99.90
13892;DHT22;7016;48.172;8.058;2023-04-16T09:41:28;9.80;99.90
13892;DHT22;7016;48.172;8.058;2023-04-16T09:44:04;9.80;99.90
13892;DHT22;7016;48.172;8.058;2023-04-16T09:46:34;9.80;99.90
13892;DHT22;7016;48.172;8.058;2023-04-16T09:49:13;9.80;99.90
13892;DHT22;7016;48.172;8.058;2023-04-16T09:51:42;9.80;99.90
13892;DHT22;7016;48.172;8.058;2023-04-16T09:54:08;9.70;99.90
13892;DHT22;7016;48.172;8.058;2023-04-16T09:56:45;9.80;99.90
13892;DHT22;7016;48.172;8.058;2023-04-16T09:59:22;9.80;99.90
13892;DHT22;7016;48.172;8.058;2023-04-16T10:01:48;9.60;99.90
13892;DHT22;7016;48.172;8.058;2023-04-16T10:04:15;9.70;99.90
13892;DHT22;7016;48.172;8.058;2023-04-16T10:06:41;9.60;99.90
13892;DHT22;7016;48.172;8.058;2023-04-16T10:09:07;9.70;99.90
13892;DHT22;7016;48.172;8.058;2023-04-16T10:11:33;9.70;99.90
13892;DHT22;7016;48.172;8.058;2023-04-16T10:13:59;9.70;99.90
13892;DHT22;7016;48.172;8.058;2023-04-16T10:16:25;9.50;99.90
13892;DHT22;7016;48.172;8.058;2023-04-16T10:18:52;9.40;99.90
13892;DHT22;7016;48.172;8.058;2023-04-16T10:21:18;9.50;99.90
13892;DHT22;7016;48.172;8.058;2023-04-16T10:23:45;9.50;99.90
13892;DHT22;7016;48.172;8.058;2023-04-16T10:26:14;9.60;99.90
13892;DHT22;7016;48.172;8.058;2023-04-16T10:28:39;9.70;99.90
13892;DHT22;7016;48.172;8.058;2023-04-16T10:31:09;9.70;99.90
13892;DHT22;7016;48.172;8.058;2023-04-16T10:33:38;9.80;99.90
13892;DHT22;7016;48.172;8.058;2023-04-16T10:38:34;9.80;99.90
13892;DHT22;7016;48.172;8.058;2023-04-16T10:41:03;9.90;99.90
13892;DHT22;7016;48.172;8.058;2023-04-16T10:43:32;9.90;99.90
13892;DHT22;7016;48.172;8.058;2023-04-16T10:46:22;9.90;99.90
13892;DHT22;7016;48.172;8.058;2023-04-16T10:48:51;9.90;99.90
13892;DHT22;7016;48.172;8.058;2023-04-16T10:51:33;10.00;99.90
13892;DHT22;7016;48.172;8.058;2023-04-16T10:56:37;10.10;99.90
13892;DHT22;7016;48.172;8.058;2023-04-16T10:59:09;10.10;99.90
13892;DHT22;7016;48.172;8.058;2023-04-16T11:01:36;10.10;99.90
13892;DHT22;7016;48.172;8.058;2023-04-16T11:12:22;10.20;99.90
13892;DHT22;7016;48.172;8.058;2023-04-16T11:14:59;10.20;99.90
13892;DHT22;7016;48.172;8.058;2023-04-16T11:20:09;10.20;99.90
13892;DHT22;7016;48.172;8.058;2023-04-16T11:22:35;10.30;99.90
13892;DHT22;7016;48.172;8.058;2023-04-16T11:25:01;10.30;99.90
13892;DHT22;7016;48.172;8.058;2023-04-16T11:27:29;10.30;99.90
13892;DHT22;7016;48.172;8.058;2023-04-16T11:29:59;10.40;99.90
13892;DHT22;7016;48.172;8.058;2023-04-16T11:32:26;10.30;99.90
13892;DHT22;7016;48.172;8.058;2023-04-16T11:34:52;10.30;99.90
13892;DHT22;7016;48.172;8.058;2023-04-16T11:37:30;10.30;99.90
13892;DHT22;7016;48.172;8.058;2023-04-16T11:39:57;10.30;99.90
13892;DHT22;7016;48.172;8.058;2023-04-16T11:42:23;10.20;99.90
13892;DHT22;7016;48.172;8.058;2023-04-16T11:44:56;10.10;99.90
13892;DHT22;7016;48.172;8.058;2023-04-16T11:47:23;10.00;99.90
13892;DHT22;7016;48.172;8.058;2023-04-16T11:49:49;10.10;99.90
13892;DHT22;7016;48.172;8.058;2023-04-16T11:52:29;10.10;99.90
13892;DHT22;7016;48.172;8.058;2023-04-16T11:54:55;10.10;99.90
13892;DHT22;7016;48.172;8.058;2023-04-16T11:57:29;10.20;99.90
13892;DHT22;7016;48.172;8.058;2023-04-16T11:59:59;10.20;99.90
13892;DHT22;7016;48.172;8.058;2023-04-16T12:02:53;10.20;99.90
13892;DHT22;7016;48.172;8.058;2023-04-16T12:08:05;10.30;99.90
13892;DHT22;7016;48.172;8.058;2023-04-16T12:10:35;10.30;99.90
13892;DHT22;7016;48.172;8.058;2023-04-16T12:13:12;10.40;99.90
13892;DHT22;7016;48.172;8.058;2023-04-16T12:15:45;10.30;99.90
13892;DHT22;7016;48.172;8.058;2023-04-16T12:18:11;10.40;99.90
13892;DHT22;7016;48.172;8.058;2023-04-16T12:20:41;10.40;99.90
13892;DHT22;7016;48.172;8.058;2023-04-16T12:23:07;10.50;99.90
13892;DHT22;7016;48.172;8.058;2023-04-16T12:25:33;10.40;99.90
13892;DHT22;7016;48.172;8.058;2023-04-16T12:28:00;10.50;99.90
13892;DHT22;7016;48.172;8.058;2023-04-16T12:30:26;10.50;99.90
13892;DHT22;7016;48.172;8.058;2023-04-16T12:33:12;10.50;99.90
13892;DHT22;7016;48.172;8.058;2023-04-16T12:35:39;10.40;99.90
13892;DHT22;7016;48.172;8.058;2023-04-16T12:38:06;10.50;99.90
13892;DHT22;7016;48.172;8.058;2023-04-16T12:40:33;10.40;99.90
13892;DHT22;7016;48.172;8.058;2023-04-16T12:42:59;10.40;99.90
13892;DHT22;7016;48.172;8.058;2023-04-16T12:45:25;10.40;99.90
13892;DHT22;7016;48.172;8.058;2023-04-16T12:50:18;10.50;99.90
13892;DHT22;7016;48.172;8.058;2023-04-16T12:52:43;10.50;99.90
13892;DHT22;7016;48.172;8.058;2023-04-16T12:55:11;10.50;99.90
13892;DHT22;7016;48.172;8.058;2023-04-16T12:57:38;10.50;99.90
13892;DHT22;7016;48.172;8.058;2023-04-16T13:00:04;10.50;99.90
13892;DHT22;7016;48.172;8.058;2023-04-16T13:02:32;10.50;99.90
13892;DHT22;7016;48.172;8.058;2023-04-16T13:04:58;10.50;99.90
13892;DHT22;7016;48.172;8.058;2023-04-16T13:07:24;10.50;99.90
13892;DHT22;7016;48.172;8.058;2023-04-16T13:09:51;10.50;99.90
13892;DHT22;7016;48.172;8.058;2023-04-16T13:12:17;10.50;99.90
13892;DHT22;7016;48.172;8.058;2023-04-16T13:14:43;10.50;99.90
13892;DHT22;7016;48.172;8.058;2023-04-16T13:17:09;10.40;99.90
13892;DHT22;7016;48.172;8.058;2023-04-16T13:19:34;10.40;99.90
13892;DHT22;7016;48.172;8.058;2023-04-16T13:22:00;10.50;99.90
13892;DHT22;7016;48.172;8.058;2023-04-16T13:24:26;10.50;99.90
13892;DHT22;7016;48.172;8.058;2023-04-16T13:26:52;10.50;99.90
13892;DHT22;7016;48.172;8.058;2023-04-16T13:29:18;10.50;99.90
13892;DHT22;7016;48.172;8.058;2023-04-16T13:31:45;10.50;99.90
13892;DHT22;7016;48.172;8.058;2023-04-16T13:34:11;10.50;99.90
13892;DHT22;7016;48.172;8.058;2023-04-16T13:36:36;10.50;99.90
13892;DHT22;7016;48.172;8.058;2023-04-16T13:39:02;10.50;99.90
13892;DHT22;7016;48.172;8.058;2023-04-16T13:41:35;10.60;99.90
13892;DHT22;7016;48.172;8.058;2023-04-16T13:44:01;10.60;99.90
13892;DHT22;7016;48.172;8.058;2023-04-16T13:46:27;10.70;99.90
13892;DHT22;7016;48.172;8.058;2023-04-16T13:48:53;10.70;99.90
13892;DHT22;7016;48.172;8.058;2023-04-16T13:51:19;10.80;99.90
13892;DHT22;7016;48.172;8.058;2023-04-16T13:53:45;10.80;99.90
13892;DHT22;7016;48.172;8.058;2023-04-16T13:56:11;10.80;99.90
13892;DHT22;7016;48.172;8.058;2023-04-16T13:58:37;10.70;99.90
13892;DHT22;7016;48.172;8.058;2023-04-16T14:01:03;10.70;99.90
13892;DHT22;7016;48.172;8.058;2023-04-16T14:03:29;10.70;99.90
13892;DHT22;7016;48.172;8.058;2023-04-16T14:05:54;10.70;99.90
13892;DHT22;7016;48.172;8.058;2023-04-16T14:08:20;10.70;99.90
13892;DHT22;7016;48.172;8.058;2023-04-16T14:10:47;10.60;99.90
13892;DHT22;7016;48.172;8.058;2023-04-16T14:13:13;10.70;99.90
13892;DHT22;7016;48.172;8.058;2023-04-16T14:15:38;10.70;99.90
13892;DHT22;7016;48.172;8.058;2023-04-16T14:18:04;10.80;99.90
13892;DHT22;7016;48.172;8.058;2023-04-16T14:20:30;10.80;99.90
13892;DHT22;7016;48.172;8.058;2023-04-16T14:22:56;10.80;99.90
13892;DHT22;7016;48.172;8.058;2023-04-16T14:25:22;10.70;99.90
13892;DHT22;7016;48.172;8.058;2023-04-16T14:27:48;10.70;99.90
13892;DHT22;7016;48.172;8.058;2023-04-16T14:30:14;10.70;99.90
13892;DHT22;7016;48.172;8.058;2023-04-16T14:32:41;10.80;99.90
13892;DHT22;7016;48.172;8.058;2023-04-16T14:35:07;10.80;99.90
13892;DHT22;7016;48.172;8.058;2023-04-16T14:37:33;10.80;99.90
13892;DHT22;7016;48.172;8.058;2023-04-16T14:40:03;10.70;99.90
13892;DHT22;7016;48.172;8.058;2023-04-16T14:42:32;10.80;99.90
13892;DHT22;7016;48.172;8.058;2023-04-16T14:44:58;10.70;99.90
13892;DHT22;7016;48.172;8.058;2023-04-16T14:47:24;10.60;99.90
13892;DHT22;7016;48.172;8.058;2023-04-16T14:49:49;10.60;99.90
13892;DHT22;7016;48.172;8.058;2023-04-16T14:52:15;10.60;99.90
13892;DHT22;7016;48.172;8.058;2023-04-16T14:54:41;10.50;99.90
13892;DHT22;7016;48.172;8.058;2023-04-16T14:57:07;10.50;99.90
13892;DHT22;7016;48.172;8.058;2023-04-16T14:59:32;10.60;99.90
13892;DHT22;7016;48.172;8.058;2023-04-16T15:01:58;10.60;99.90
13892;DHT22;7016;48.172;8.058;2023-04-16T15:04:24;10.60;99.90
13892;DHT22;7016;48.172;8.058;2023-04-16T15:06:50;10.50;99.90
13892;DHT22;7016;48.172;8.058;2023-04-16T15:09:16;10.50;99.90
13892;DHT22;7016;48.172;8.058;2023-04-16T15:11:41;10.60;99.90
13892;DHT22;7016;48.172;8.058;2023-04-16T15:14:07;10.60;99.90
13892;DHT22;7016;48.172;8.058;2023-04-16T15:16:33;10.60;99.90
13892;DHT22;7016;48.172;8.058;2023-04-16T15:18:58;10.60;99.90
13892;DHT22;7016;48.172;8.058;2023-04-16T15:21:25;10.30;99.90
13892;DHT22;7016;48.172;8.058;2023-04-16T15:23:52;10.50;99.90
13892;DHT22;7016;48.172;8.058;2023-04-16T15:26:18;10.60;99.90
13892;DHT22;7016;48.172;8.058;2023-04-16T15:28:44;10.60;99.90
13892;DHT22;7016;48.172;8.058;2023-04-16T15:31:10;10.60;99.90
13892;DHT22;7016;48.172;8.058;2023-04-16T15:33:35;10.50;99.90
13892;DHT22;7016;48.172;8.058;2023-04-16T15:36:01;10.40;99.90
13892;DHT22;7016;48.172;8.058;2023-04-16T15:38:28;10.50;99.90
13892;DHT22;7016;48.172;8.058;2023-04-16T15:40:57;10.60;99.90
13892;DHT22;7016;48.172;8.058;2023-04-16T15:43:26;10.60;99.90
13892;DHT22;7016;48.172;8.058;2023-04-16T15:45:53;10.60;99.90
13892;DHT22;7016;48.172;8.058;2023-04-16T15:48:18;10.60;99.90
13892;DHT22;7016;48.172;8.058;2023-04-16T15:50:44;10.70;99.90
13892;DHT22;7016;48.172;8.058;2023-04-16T15:53:10;10.60;99.90
13892;DHT22;7016;48.172;8.058;2023-04-16T15:55:37;10.60;99.90
13892;DHT22;7016;48.172;8.058;2023-04-16T15:58:02;10.60;99.90
13892;DHT22;7016;48.172;8.058;2023-04-16T16:00:28;10.70;99.90
13892;DHT22;7016;48.172;8.058;2023-04-16T16:02:54;10.60;99.90
13892;DHT22;7016;48.172;8.058;2023-04-16T16:05:20;10.60;99.90
13892;DHT22;7016;48.172;8.058;2023-04-16T16:07:45;10.50;99.90
13892;DHT22;7016;48.172;8.058;2023-04-16T16:10:11;10.60;99.90
13892;DHT22;7016;48.172;8.058;2023-04-16T16:12:38;10.60;99.90